sensor_id;sensor_type;location;lat;lon;timestamp;pressure;altitude;pressure_sealevel;temperature;humidity
69593;BME280;56796;50.122;14.468;2022-07-29T00:06:51;980.3;;;19.27;56.48
69593;BME280;56796;50.122;14.468;2022-07-29T00:26:12;979.99;;;19.04;57.3
69593;BME280;56796;50.122;14.468;2022-07-29T00:45:48;980;;;18.85;57.84
69593;BME280;56796;50.122;14.468;2022-07-29T01:05:25;979.93;;;18.7;57.96
69593;BME280;56796;50.122;14.468;2022-07-29T01:25:03;979.85;;;18.6;57.88
69593;BME280;56796;50.122;14.468;2022-07-29T01:44:41;979.64;;;18.54;57.98
69593;BME280;56796;50.122;14.468;2022-07-29T02:03:56;979.53;;;18.37;58.62
69593;BME280;56796;50.122;14.468;2022-07-29T02:23:30;979.54;;;18.27;58.77
69593;BME280;56796;50.122;14.468;2022-07-29T02:43:05;979.69;;;18.24;58.91
69593;BME280;56796;50.122;14.468;2022-07-29T03:02:40;979.61;;;18.29;58.7
69593;BME280;56796;50.122;14.468;2022-07-29T03:22:15;979.48;;;18.12;59.13
69593;BME280;56796;50.122;14.468;2022-07-29T03:41:52;979.65;;;17.93;60.13
69593;BME280;56796;50.122;14.468;2022-07-29T04:01:29;979.39;;;17.87;60.64
69593;BME280;56796;50.122;14.468;2022-07-29T04:20:50;979.51;;;17.9;60.58
69593;BME280;56796;50.122;14.468;2022-07-29T04:40:27;979.46;;;18.16;60.36
69593;BME280;56796;50.122;14.468;2022-07-29T05:00:04;979.65;;;18.17;60.4
69593;BME280;56796;50.122;14.468;2022-07-29T05:19:40;979.77;;;18.69;59.91
69593;BME280;56796;50.122;14.468;2022-07-29T05:39:19;979.68;;;19.79;57.88
69593;BME280;56796;50.122;14.468;2022-07-29T05:58:56;979.66;;;20.75;55.86
69593;BME280;56796;50.122;14.468;2022-07-29T06:18:36;979.58;;;21.23;53.89
69593;BME280;56796;50.122;14.468;2022-07-29T06:38:17;979.66;;;21.17;53.88
69593;BME280;56796;50.122;14.468;2022-07-29T06:57:39;979.98;;;20.91;54.94
69593;BME280;56796;50.122;14.468;2022-07-29T07:17:14;980;;;21.13;54.76
69593;BME280;56796;50.122;14.468;2022-07-29T07:36:53;979.88;;;22.08;52.36
69593;BME280;56796;50.122;14.468;2022-07-29T07:56:29;979.67;;;22.28;52.76
69593;BME280;56796;50.122;14.468;2022-07-29T08:16:07;979.82;;;22.54;52.33
69593;BME280;56796;50.122;14.468;2022-07-29T08:35:45;979.81;;;23.12;50.89
69593;BME280;56796;50.122;14.468;2022-07-29T08:55:19;979.89;;;22.94;52.66
69593;BME280;56796;50.122;14.468;2022-07-29T09:14:59;979.81;;;23.64;51.06
69593;BME280;56796;50.122;14.468;2022-07-29T09:34:25;979.76;;;24.66;50.65
69593;BME280;56796;50.122;14.468;2022-07-29T09:54:03;979.68;;;24.73;49.6
69593;BME280;56796;50.122;14.468;2022-07-29T10:13:38;979.65;;;25.23;49.62
69593;BME280;56796;50.122;14.468;2022-07-29T10:33:17;979.59;;;24.83;51.25
69593;BME280;56796;50.122;14.468;2022-07-29T10:52:51;979.51;;;25.39;50.37
69593;BME280;56796;50.122;14.468;2022-07-29T11:51:38;979.56;;;25.8;50.5
69593;BME280;56796;50.122;14.468;2022-07-29T12:30:45;979.32;;;25.28;52.82
69593;BME280;56796;50.122;14.468;2022-07-29T12:50:21;979.22;;;25.46;52.04
69593;BME280;56796;50.122;14.468;2022-07-29T13:29:25;978.91;;;26.59;51.48
69593;BME280;56796;50.122;14.468;2022-07-29T13:49:03;978.74;;;26.54;51.17
69593;BME280;56796;50.122;14.468;2022-07-29T14:08:38;978.56;;;26.58;51.56
69593;BME280;56796;50.122;14.468;2022-07-29T14:28:19;978.45;;;28.53;48.15
69593;BME280;56796;50.122;14.468;2022-07-29T14:48:00;978.43;;;28.17;47.13
69593;BME280;56796;50.122;14.468;2022-07-29T15:07:36;978.37;;;29.18;45.12
69593;BME280;56796;50.122;14.468;2022-07-29T15:27:12;978.21;;;28.7;46.84
69593;BME280;56796;50.122;14.468;2022-07-29T15:46:46;977.95;;;27.42;48.82
69593;BME280;56796;50.122;14.468;2022-07-29T16:06:20;978.05;;;27.45;49.25
69593;BME280;56796;50.122;14.468;2022-07-29T16:25:54;977.88;;;26.97;50.72
69593;BME280;56796;50.122;14.468;2022-07-29T16:45:27;977.8;;;25.93;53.46
69593;BME280;56796;50.122;14.468;2022-07-29T17:05:03;977.84;;;25.44;55.37
69593;BME280;56796;50.122;14.468;2022-07-29T17:24:26;977.76;;;25.38;54.83
69593;BME280;56796;50.122;14.468;2022-07-29T17:43:45;977.65;;;25.03;54.87
69593;BME280;56796;50.122;14.468;2022-07-29T18:03:20;977.51;;;24.61;56.1
69593;BME280;56796;50.122;14.468;2022-07-29T18:22:55;977.49;;;24.33;57.32
69593;BME280;56796;50.122;14.468;2022-07-29T18:42:30;977.65;;;24.01;58.34
69593;BME280;56796;50.122;14.468;2022-07-29T19:02:04;977.79;;;23.71;59.38
69593;BME280;56796;50.122;14.468;2022-07-29T19:21:38;977.85;;;23.47;60.62
69593;BME280;56796;50.122;14.468;2022-07-29T19:41:13;977.89;;;23.34;61.52
69593;BME280;56796;50.122;14.468;2022-07-29T20:00:49;977.93;;;23.16;61.89
69593;BME280;56796;50.122;14.468;2022-07-29T20:20:25;977.85;;;22.84;62.5
69593;BME280;56796;50.122;14.468;2022-07-29T20:40:00;977.73;;;22.57;63.39
69593;BME280;56796;50.122;14.468;2022-07-29T20:59:37;977.71;;;22.27;64.42
69593;BME280;56796;50.122;14.468;2022-07-29T21:19:11;977.71;;;21.95;65.92
69593;BME280;56796;50.122;14.468;2022-07-29T21:38:44;977.78;;;21.72;66.94
69593;BME280;56796;50.122;14.468;2022-07-29T21:58:19;977.92;;;21.6;67.66
69593;BME280;56796;50.122;14.468;2022-07-29T22:17:55;977.85;;;21.41;68.59
69593;BME280;56796;50.122;14.468;2022-07-29T22:37:29;977.89;;;21.03;72.21
69593;BME280;56796;50.122;14.468;2022-07-29T22:57:04;978.1;;;20.55;76.26
69593;BME280;56796;50.122;14.468;2022-07-29T23:16:37;978.24;;;19.85;83.76
69593;BME280;56796;50.122;14.468;2022-07-29T23:36:11;978.24;;;19.2;90.88
69593;BME280;56796;50.122;14.468;2022-07-29T23:55:45;978.32;;;18.79;96.51
